Portada
METAR-TAF:

METAR-TAF

Aeroports :

Plant City, Florida, Estats Units d'Amèrica

latitud: 28-00-01N, longitud: 082-09-51W, altitud: 47 m

Observació

L'informe es va fer fa 14 minuts, a les 05:55 UTC
Vent 3 kt del Nord-Oest
Temperatura 25°C
Humitat 100%
Pressió 1016 hPa
Visibilitat: 16.1 km
Cel clar

METAR: KPCM 160555Z AUTO 31003KT 10SM CLR 25/25 A2999 RMK AO2

Hora: 02:09 (06:09 UTC)


TAF: manca

Observacions i pronòstics meteorològics de més de 4000 aeroports (METAR i TAF).

Les estacions disponibles són els punts grocs i vermells al mapa.

Posi el ratolí al punt desitjat per veure el nom de l'estació.

Feu clic per veure les observacions i els pronòstics meteorològics.

Per canviar el mapa: feu clic els botons verds amb una creu de color negre per apropar; al botó verd amb un guió per allunyar la imatge; o en les fletxes verdes per a mapes adjacents.


METAR-TAF: